sensor_id;sensor_type;location;lat;lon;timestamp;temperature;humidity
47521;DHT22;32291;52.010;4.446;2023-02-15T00:00:09;1.50;99.90
47521;DHT22;32291;52.010;4.446;2023-02-15T00:01:13;1.60;99.90
47521;DHT22;32291;52.010;4.446;2023-02-15T00:02:14;1.60;99.90
47521;DHT22;32291;52.010;4.446;2023-02-15T00:03:16;1.60;99.90
47521;DHT22;32291;52.010;4.446;2023-02-15T00:04:21;1.60;99.90
47521;DHT22;32291;52.010;4.446;2023-02-15T00:05:23;1.50;99.90
47521;DHT22;32291;52.010;4.446;2023-02-15T00:06:25;1.50;99.90
47521;DHT22;32291;52.010;4.446;2023-02-15T00:07:27;1.50;99.90
47521;DHT22;32291;52.010;4.446;2023-02-15T00:08:28;1.60;99.90
47521;DHT22;32291;52.010;4.446;2023-02-15T00:09:30;1.50;99.90
47521;DHT22;32291;52.010;4.446;2023-02-15T00:10:31;1.60;99.90
47521;DHT22;32291;52.010;4.446;2023-02-15T00:11:33;1.50;99.90
47521;DHT22;32291;52.010;4.446;2023-02-15T00:13:06;1.50;99.90
47521;DHT22;32291;52.010;4.446;2023-02-15T00:14:13;1.40;99.90
47521;DHT22;32291;52.010;4.446;2023-02-15T00:15:15;1.50;99.90
47521;DHT22;32291;52.010;4.446;2023-02-15T00:16:17;1.40;99.90
47521;DHT22;32291;52.010;4.446;2023-02-15T00:17:18;1.40;99.90
47521;DHT22;32291;52.010;4.446;2023-02-15T00:18:20;1.40;99.90
47521;DHT22;32291;52.010;4.446;2023-02-15T00:19:22;1.40;99.90
47521;DHT22;32291;52.010;4.446;2023-02-15T00:20:23;1.40;99.90
47521;DHT22;32291;52.010;4.446;2023-02-15T00:21:24;1.50;99.90
47521;DHT22;32291;52.010;4.446;2023-02-15T00:22:26;1.40;99.90
47521;DHT22;32291;52.010;4.446;2023-02-15T00:23:27;1.40;99.90
47521;DHT22;32291;52.010;4.446;2023-02-15T00:24:29;1.50;99.90
47521;DHT22;32291;52.010;4.446;2023-02-15T00:25:30;1.40;99.90
47521;DHT22;32291;52.010;4.446;2023-02-15T00:26:32;1.40;99.90
47521;DHT22;32291;52.010;4.446;2023-02-15T00:27:34;1.40;99.90
47521;DHT22;32291;52.010;4.446;2023-02-15T00:28:35;1.40;99.90
47521;DHT22;32291;52.010;4.446;2023-02-15T00:29:37;1.40;99.90
47521;DHT22;32291;52.010;4.446;2023-02-15T00:30:38;1.50;99.90
47521;DHT22;32291;52.010;4.446;2023-02-15T00:31:39;1.50;99.90
47521;DHT22;32291;52.010;4.446;2023-02-15T00:32:41;1.50;99.90
47521;DHT22;32291;52.010;4.446;2023-02-15T00:33:43;1.50;99.90
47521;DHT22;32291;52.010;4.446;2023-02-15T00:34:44;1.50;99.90
47521;DHT22;32291;52.010;4.446;2023-02-15T00:35:46;1.50;99.90
47521;DHT22;32291;52.010;4.446;2023-02-15T00:36:48;1.50;99.90
47521;DHT22;32291;52.010;4.446;2023-02-15T00:37:49;1.50;99.90
47521;DHT22;32291;52.010;4.446;2023-02-15T00:38:51;1.50;99.90
47521;DHT22;32291;52.010;4.446;2023-02-15T00:39:52;1.50;99.90
47521;DHT22;32291;52.010;4.446;2023-02-15T00:40:54;1.40;99.90
47521;DHT22;32291;52.010;4.446;2023-02-15T00:41:56;1.40;99.90
47521;DHT22;32291;52.010;4.446;2023-02-15T00:42:57;1.40;99.90
47521;DHT22;32291;52.010;4.446;2023-02-15T00:44:00;1.30;99.90
47521;DHT22;32291;52.010;4.446;2023-02-15T00:45:02;1.30;99.90
47521;DHT22;32291;52.010;4.446;2023-02-15T00:46:04;1.30;99.90
47521;DHT22;32291;52.010;4.446;2023-02-15T00:47:06;1.30;99.90
47521;DHT22;32291;52.010;4.446;2023-02-15T00:48:08;1.40;99.90
47521;DHT22;32291;52.010;4.446;2023-02-15T00:49:10;1.30;99.90
47521;DHT22;32291;52.010;4.446;2023-02-15T00:50:11;1.30;99.90
47521;DHT22;32291;52.010;4.446;2023-02-15T00:51:13;1.50;99.90
47521;DHT22;32291;52.010;4.446;2023-02-15T00:52:14;1.30;99.90
47521;DHT22;32291;52.010;4.446;2023-02-15T00:53:16;1.20;99.90
47521;DHT22;32291;52.010;4.446;2023-02-15T00:54:18;1.30;99.90
47521;DHT22;32291;52.010;4.446;2023-02-15T00:55:19;1.20;99.90
47521;DHT22;32291;52.010;4.446;2023-02-15T00:56:21;1.30;99.90
47521;DHT22;32291;52.010;4.446;2023-02-15T00:57:22;1.30;99.90
47521;DHT22;32291;52.010;4.446;2023-02-15T00:58:24;1.30;99.90
47521;DHT22;32291;52.010;4.446;2023-02-15T00:59:26;1.30;99.90
47521;DHT22;32291;52.010;4.446;2023-02-15T01:00:28;1.30;99.90
47521;DHT22;32291;52.010;4.446;2023-02-15T01:01:29;1.20;99.90
47521;DHT22;32291;52.010;4.446;2023-02-15T01:02:31;1.20;99.90
47521;DHT22;32291;52.010;4.446;2023-02-15T01:03:36;1.20;99.90
47521;DHT22;32291;52.010;4.446;2023-02-15T01:04:38;1.20;99.90
47521;DHT22;32291;52.010;4.446;2023-02-15T01:05:39;1.20;99.90
47521;DHT22;32291;52.010;4.446;2023-02-15T01:06:41;1.20;99.90
47521;DHT22;32291;52.010;4.446;2023-02-15T01:07:43;1.20;99.90
47521;DHT22;32291;52.010;4.446;2023-02-15T01:08:45;1.20;99.90
47521;DHT22;32291;52.010;4.446;2023-02-15T01:09:47;1.30;99.90
47521;DHT22;32291;52.010;4.446;2023-02-15T01:10:49;1.30;99.90
47521;DHT22;32291;52.010;4.446;2023-02-15T01:11:51;1.30;99.90
47521;DHT22;32291;52.010;4.446;2023-02-15T01:12:53;1.30;99.90
47521;DHT22;32291;52.010;4.446;2023-02-15T01:13:57;1.30;99.90
47521;DHT22;32291;52.010;4.446;2023-02-15T01:14:58;1.30;99.90
47521;DHT22;32291;52.010;4.446;2023-02-15T01:16:00;1.30;99.90
47521;DHT22;32291;52.010;4.446;2023-02-15T01:17:01;1.30;99.90
47521;DHT22;32291;52.010;4.446;2023-02-15T01:18:03;1.30;99.90
47521;DHT22;32291;52.010;4.446;2023-02-15T01:19:05;1.30;99.90
47521;DHT22;32291;52.010;4.446;2023-02-15T01:20:07;1.30;99.90
47521;DHT22;32291;52.010;4.446;2023-02-15T01:21:14;1.30;99.90
47521;DHT22;32291;52.010;4.446;2023-02-15T01:22:16;1.20;99.90
47521;DHT22;32291;52.010;4.446;2023-02-15T01:23:19;1.30;99.90
47521;DHT22;32291;52.010;4.446;2023-02-15T01:24:20;1.40;99.90
47521;DHT22;32291;52.010;4.446;2023-02-15T01:25:23;1.30;99.90
47521;DHT22;32291;52.010;4.446;2023-02-15T01:26:24;1.30;99.90
47521;DHT22;32291;52.010;4.446;2023-02-15T01:27:26;1.20;99.90
47521;DHT22;32291;52.010;4.446;2023-02-15T01:28:31;1.30;99.90
47521;DHT22;32291;52.010;4.446;2023-02-15T01:29:33;1.40;99.90
47521;DHT22;32291;52.010;4.446;2023-02-15T01:30:34;1.30;99.90
47521;DHT22;32291;52.010;4.446;2023-02-15T01:31:35;1.20;99.90
47521;DHT22;32291;52.010;4.446;2023-02-15T01:32:40;1.20;99.90
47521;DHT22;32291;52.010;4.446;2023-02-15T01:33:41;1.30;99.90
47521;DHT22;32291;52.010;4.446;2023-02-15T01:34:43;1.70;99.90
47521;DHT22;32291;52.010;4.446;2023-02-15T01:35:45;1.20;99.90
47521;DHT22;32291;52.010;4.446;2023-02-15T01:36:47;1.20;99.90
47521;DHT22;32291;52.010;4.446;2023-02-15T01:37:49;1.20;99.90
47521;DHT22;32291;52.010;4.446;2023-02-15T01:38:51;1.30;99.90
47521;DHT22;32291;52.010;4.446;2023-02-15T01:39:52;1.20;99.90
47521;DHT22;32291;52.010;4.446;2023-02-15T01:40:54;1.20;99.90
47521;DHT22;32291;52.010;4.446;2023-02-15T01:42:21;1.20;99.90
47521;DHT22;32291;52.010;4.446;2023-02-15T01:43:39;1.20;99.90
47521;DHT22;32291;52.010;4.446;2023-02-15T01:45:01;1.20;99.90
47521;DHT22;32291;52.010;4.446;2023-02-15T01:46:03;1.20;99.90
47521;DHT22;32291;52.010;4.446;2023-02-15T01:47:05;1.20;99.90
47521;DHT22;32291;52.010;4.446;2023-02-15T01:49:19;1.20;99.90
47521;DHT22;32291;52.010;4.446;2023-02-15T01:51:27;1.20;99.90
47521;DHT22;32291;52.010;4.446;2023-02-15T01:52:30;1.20;99.90
47521;DHT22;32291;52.010;4.446;2023-02-15T01:53:34;1.20;99.90
47521;DHT22;32291;52.010;4.446;2023-02-15T01:54:41;1.10;99.90
47521;DHT22;32291;52.010;4.446;2023-02-15T01:55:58;1.10;99.90
47521;DHT22;32291;52.010;4.446;2023-02-15T01:57:11;1.10;99.90
47521;DHT22;32291;52.010;4.446;2023-02-15T01:58:13;1.10;99.90
47521;DHT22;32291;52.010;4.446;2023-02-15T01:59:19;1.10;99.90
47521;DHT22;32291;52.010;4.446;2023-02-15T02:00:21;1.10;99.90
47521;DHT22;32291;52.010;4.446;2023-02-15T02:01:24;1.00;99.90
47521;DHT22;32291;52.010;4.446;2023-02-15T02:02:27;1.00;99.90
47521;DHT22;32291;52.010;4.446;2023-02-15T02:03:55;1.00;99.90
47521;DHT22;32291;52.010;4.446;2023-02-15T02:05:03;1.00;99.90
47521;DHT22;32291;52.010;4.446;2023-02-15T02:06:07;0.90;99.90
47521;DHT22;32291;52.010;4.446;2023-02-15T02:07:09;0.90;99.90
47521;DHT22;32291;52.010;4.446;2023-02-15T02:08:13;0.90;99.90
47521;DHT22;32291;52.010;4.446;2023-02-15T02:09:15;0.90;99.90
47521;DHT22;32291;52.010;4.446;2023-02-15T02:10:19;0.80;99.90
47521;DHT22;32291;52.010;4.446;2023-02-15T02:11:21;0.90;99.90
47521;DHT22;32291;52.010;4.446;2023-02-15T02:12:23;0.80;99.90
47521;DHT22;32291;52.010;4.446;2023-02-15T02:13:26;0.80;99.90
47521;DHT22;32291;52.010;4.446;2023-02-15T02:14:28;0.90;99.90
47521;DHT22;32291;52.010;4.446;2023-02-15T02:15:58;0.80;99.90
47521;DHT22;32291;52.010;4.446;2023-02-15T02:17:11;0.80;99.90
47521;DHT22;32291;52.010;4.446;2023-02-15T02:20:55;0.80;99.90
47521;DHT22;32291;52.010;4.446;2023-02-15T02:21:34;0.80;99.90
47521;DHT22;32291;52.010;4.446;2023-02-15T02:22:46;0.70;99.90
47521;DHT22;32291;52.010;4.446;2023-02-15T02:26:54;0.70;99.90
47521;DHT22;32291;52.010;4.446;2023-02-15T02:37:51;0.50;99.90
47521;DHT22;32291;52.010;4.446;2023-02-15T02:42:59;0.50;99.90
47521;DHT22;32291;52.010;4.446;2023-02-15T02:45:45;0.50;99.90
47521;DHT22;32291;52.010;4.446;2023-02-15T02:47:14;0.50;99.90
47521;DHT22;32291;52.010;4.446;2023-02-15T02:48:21;0.40;99.90
47521;DHT22;32291;52.010;4.446;2023-02-15T02:49:35;0.50;99.90
47521;DHT22;32291;52.010;4.446;2023-02-15T02:50:39;0.50;99.90
47521;DHT22;32291;52.010;4.446;2023-02-15T02:51:41;0.60;99.90
47521;DHT22;32291;52.010;4.446;2023-02-15T02:52:44;0.50;99.90
47521;DHT22;32291;52.010;4.446;2023-02-15T02:53:49;0.60;99.90
47521;DHT22;32291;52.010;4.446;2023-02-15T02:54:51;0.60;99.90
47521;DHT22;32291;52.010;4.446;2023-02-15T02:56:09;0.50;99.90
47521;DHT22;32291;52.010;4.446;2023-02-15T02:57:15;0.50;99.90
47521;DHT22;32291;52.010;4.446;2023-02-15T02:58:42;0.50;99.90
47521;DHT22;32291;52.010;4.446;2023-02-15T02:59:47;0.50;99.90
47521;DHT22;32291;52.010;4.446;2023-02-15T03:00:57;0.50;99.90
47521;DHT22;32291;52.010;4.446;2023-02-15T03:02:26;0.50;99.90
47521;DHT22;32291;52.010;4.446;2023-02-15T03:03:52;0.50;99.90
47521;DHT22;32291;52.010;4.446;2023-02-15T03:05:00;0.50;99.90
47521;DHT22;32291;52.010;4.446;2023-02-15T03:06:12;0.50;99.90
47521;DHT22;32291;52.010;4.446;2023-02-15T03:07:21;0.50;99.90
47521;DHT22;32291;52.010;4.446;2023-02-15T03:08:25;0.40;99.90
47521;DHT22;32291;52.010;4.446;2023-02-15T03:09:39;0.50;99.90
47521;DHT22;32291;52.010;4.446;2023-02-15T03:10:45;0.50;99.90
47521;DHT22;32291;52.010;4.446;2023-02-15T03:11:47;0.40;99.90
47521;DHT22;32291;52.010;4.446;2023-02-15T03:12:49;0.40;99.90
47521;DHT22;32291;52.010;4.446;2023-02-15T03:13:52;0.40;99.90
47521;DHT22;32291;52.010;4.446;2023-02-15T03:14:57;0.40;99.90
47521;DHT22;32291;52.010;4.446;2023-02-15T03:16:00;0.40;99.90
47521;DHT22;32291;52.010;4.446;2023-02-15T03:17:23;0.40;99.90
47521;DHT22;32291;52.010;4.446;2023-02-15T03:18:30;0.30;99.90
47521;DHT22;32291;52.010;4.446;2023-02-15T03:19:36;0.30;99.90
47521;DHT22;32291;52.010;4.446;2023-02-15T03:20:39;0.30;99.90
47521;DHT22;32291;52.010;4.446;2023-02-15T03:21:44;0.30;99.90
47521;DHT22;32291;52.010;4.446;2023-02-15T03:23:01;0.30;99.90
47521;DHT22;32291;52.010;4.446;2023-02-15T03:24:19;0.30;99.90
47521;DHT22;32291;52.010;4.446;2023-02-15T03:25:28;0.30;99.90
47521;DHT22;32291;52.010;4.446;2023-02-15T03:26:32;0.30;99.90
47521;DHT22;32291;52.010;4.446;2023-02-15T03:27:44;0.30;99.90
47521;DHT22;32291;52.010;4.446;2023-02-15T03:28:48;0.20;99.90
47521;DHT22;32291;52.010;4.446;2023-02-15T03:29:54;0.30;99.90
47521;DHT22;32291;52.010;4.446;2023-02-15T03:30:58;0.20;99.90
47521;DHT22;32291;52.010;4.446;2023-02-15T03:32:04;0.30;99.90
47521;DHT22;32291;52.010;4.446;2023-02-15T03:33:07;0.30;99.90
47521;DHT22;32291;52.010;4.446;2023-02-15T03:34:11;0.30;99.90
47521;DHT22;32291;52.010;4.446;2023-02-15T03:35:13;0.30;99.90
47521;DHT22;32291;52.010;4.446;2023-02-15T03:36:22;0.30;99.90
47521;DHT22;32291;52.010;4.446;2023-02-15T03:37:36;0.30;99.90
47521;DHT22;32291;52.010;4.446;2023-02-15T03:39:01;0.30;99.90
47521;DHT22;32291;52.010;4.446;2023-02-15T03:40:10;0.20;99.90
47521;DHT22;32291;52.010;4.446;2023-02-15T03:41:34;0.30;99.90
47521;DHT22;32291;52.010;4.446;2023-02-15T03:42:39;0.20;99.90
47521;DHT22;32291;52.010;4.446;2023-02-15T03:44:11;0.20;99.90
47521;DHT22;32291;52.010;4.446;2023-02-15T03:45:20;0.20;99.90
47521;DHT22;32291;52.010;4.446;2023-02-15T03:46:35;0.20;99.90
47521;DHT22;32291;52.010;4.446;2023-02-15T03:47:46;0.20;99.90
47521;DHT22;32291;52.010;4.446;2023-02-15T03:48:56;0.20;99.90
47521;DHT22;32291;52.010;4.446;2023-02-15T03:50:12;0.10;99.90
47521;DHT22;32291;52.010;4.446;2023-02-15T03:51:36;0.10;99.90
47521;DHT22;32291;52.010;4.446;2023-02-15T03:52:39;0.10;99.90
47521;DHT22;32291;52.010;4.446;2023-02-15T03:53:42;0.10;99.90
47521;DHT22;32291;52.010;4.446;2023-02-15T03:54:44;0.10;99.90
47521;DHT22;32291;52.010;4.446;2023-02-15T03:55:52;0.10;99.90
47521;DHT22;32291;52.010;4.446;2023-02-15T03:56:54;0.10;99.90
47521;DHT22;32291;52.010;4.446;2023-02-15T03:58:16;0.10;99.90
47521;DHT22;32291;52.010;4.446;2023-02-15T03:59:35;0.10;99.90
47521;DHT22;32291;52.010;4.446;2023-02-15T04:00:58;0.10;99.90
47521;DHT22;32291;52.010;4.446;2023-02-15T04:02:24;0.20;99.90
47521;DHT22;32291;52.010;4.446;2023-02-15T04:03:45;0.30;99.90
47521;DHT22;32291;52.010;4.446;2023-02-15T04:04:49;0.10;99.90
47521;DHT22;32291;52.010;4.446;2023-02-15T04:05:50;0.30;99.90
47521;DHT22;32291;52.010;4.446;2023-02-15T04:06:52;0.10;99.90
47521;DHT22;32291;52.010;4.446;2023-02-15T04:07:54;0.20;99.90
47521;DHT22;32291;52.010;4.446;2023-02-15T04:08:55;0.20;99.90
47521;DHT22;32291;52.010;4.446;2023-02-15T04:10:15;0.10;99.90
47521;DHT22;32291;52.010;4.446;2023-02-15T04:11:36;0.10;99.90
47521;DHT22;32291;52.010;4.446;2023-02-15T04:12:37;0.10;99.90
47521;DHT22;32291;52.010;4.446;2023-02-15T04:13:40;0.10;99.90
47521;DHT22;32291;52.010;4.446;2023-02-15T04:14:41;0.10;99.90
47521;DHT22;32291;52.010;4.446;2023-02-15T04:16:01;0.10;99.90
47521;DHT22;32291;52.010;4.446;2023-02-15T04:17:09;0.00;99.90
47521;DHT22;32291;52.010;4.446;2023-02-15T04:18:10;0.00;99.90
47521;DHT22;32291;52.010;4.446;2023-02-15T04:19:11;0.00;99.90
47521;DHT22;32291;52.010;4.446;2023-02-15T04:20:31;0.00;99.90
47521;DHT22;32291;52.010;4.446;2023-02-15T04:21:52;0.00;99.90
47521;DHT22;32291;52.010;4.446;2023-02-15T04:23:11;0.00;99.90
47521;DHT22;32291;52.010;4.446;2023-02-15T04:24:32;0.00;99.90
47521;DHT22;32291;52.010;4.446;2023-02-15T04:25:52;0.00;99.90
47521;DHT22;32291;52.010;4.446;2023-02-15T04:26:54;0.00;99.90
47521;DHT22;32291;52.010;4.446;2023-02-15T04:27:57;0.00;99.90
47521;DHT22;32291;52.010;4.446;2023-02-15T04:28:58;-0.10;99.90
47521;DHT22;32291;52.010;4.446;2023-02-15T04:30:00;-0.10;99.90
47521;DHT22;32291;52.010;4.446;2023-02-15T04:31:02;0.00;99.90
47521;DHT22;32291;52.010;4.446;2023-02-15T04:32:03;-0.10;99.90
47521;DHT22;32291;52.010;4.446;2023-02-15T04:33:05;-0.10;99.90
47521;DHT22;32291;52.010;4.446;2023-02-15T04:34:06;-0.10;99.90
47521;DHT22;32291;52.010;4.446;2023-02-15T04:35:08;-0.10;99.90
47521;DHT22;32291;52.010;4.446;2023-02-15T04:36:10;0.00;99.90
47521;DHT22;32291;52.010;4.446;2023-02-15T04:37:12;0.00;99.90
47521;DHT22;32291;52.010;4.446;2023-02-15T04:38:13;0.00;99.90
47521;DHT22;32291;52.010;4.446;2023-02-15T04:39:16;-0.10;99.90
47521;DHT22;32291;52.010;4.446;2023-02-15T04:40:17;-0.10;99.90
47521;DHT22;32291;52.010;4.446;2023-02-15T04:41:19;-0.10;99.90
47521;DHT22;32291;52.010;4.446;2023-02-15T04:42:20;-0.10;99.90
47521;DHT22;32291;52.010;4.446;2023-02-15T04:43:22;-0.10;99.90
47521;DHT22;32291;52.010;4.446;2023-02-15T04:44:24;-0.10;99.90
47521;DHT22;32291;52.010;4.446;2023-02-15T04:45:26;-0.10;99.90
47521;DHT22;32291;52.010;4.446;2023-02-15T04:46:28;-0.10;99.90
47521;DHT22;32291;52.010;4.446;2023-02-15T04:47:29;-0.10;99.90
47521;DHT22;32291;52.010;4.446;2023-02-15T04:48:31;-0.10;99.90
47521;DHT22;32291;52.010;4.446;2023-02-15T04:49:32;-0.10;99.90
47521;DHT22;32291;52.010;4.446;2023-02-15T04:50:34;-0.10;99.90
47521;DHT22;32291;52.010;4.446;2023-02-15T04:51:35;0.00;99.90
47521;DHT22;32291;52.010;4.446;2023-02-15T04:52:36;-0.10;99.90
47521;DHT22;32291;52.010;4.446;2023-02-15T04:53:38;0.00;99.90
47521;DHT22;32291;52.010;4.446;2023-02-15T04:54:39;0.00;99.90
47521;DHT22;32291;52.010;4.446;2023-02-15T04:55:40;0.00;99.90
47521;DHT22;32291;52.010;4.446;2023-02-15T04:56:42;0.10;99.90
47521;DHT22;32291;52.010;4.446;2023-02-15T04:57:43;0.10;99.90
47521;DHT22;32291;52.010;4.446;2023-02-15T04:58:46;0.10;99.90
47521;DHT22;32291;52.010;4.446;2023-02-15T04:59:47;0.10;99.90
47521;DHT22;32291;52.010;4.446;2023-02-15T05:00:48;0.10;99.90
47521;DHT22;32291;52.010;4.446;2023-02-15T05:01:49;0.10;99.90
47521;DHT22;32291;52.010;4.446;2023-02-15T05:02:51;0.20;99.90
47521;DHT22;32291;52.010;4.446;2023-02-15T05:03:52;0.10;99.90
47521;DHT22;32291;52.010;4.446;2023-02-15T05:04:54;0.30;99.90
47521;DHT22;32291;52.010;4.446;2023-02-15T05:05:55;0.20;99.90
47521;DHT22;32291;52.010;4.446;2023-02-15T05:06:57;0.20;99.90
47521;DHT22;32291;52.010;4.446;2023-02-15T05:07:59;0.20;99.90
47521;DHT22;32291;52.010;4.446;2023-02-15T05:09:01;0.20;99.90
47521;DHT22;32291;52.010;4.446;2023-02-15T05:10:02;0.20;99.90
47521;DHT22;32291;52.010;4.446;2023-02-15T05:11:04;0.20;99.90
47521;DHT22;32291;52.010;4.446;2023-02-15T05:12:06;0.20;99.90
47521;DHT22;32291;52.010;4.446;2023-02-15T05:13:07;0.20;99.90
47521;DHT22;32291;52.010;4.446;2023-02-15T05:14:09;0.10;99.90
47521;DHT22;32291;52.010;4.446;2023-02-15T05:15:10;0.10;99.90
47521;DHT22;32291;52.010;4.446;2023-02-15T05:16:12;0.20;99.90
47521;DHT22;32291;52.010;4.446;2023-02-15T05:17:13;0.10;99.90
47521;DHT22;32291;52.010;4.446;2023-02-15T05:18:16;0.10;99.90
47521;DHT22;32291;52.010;4.446;2023-02-15T05:19:18;0.00;99.90
47521;DHT22;32291;52.010;4.446;2023-02-15T05:20:19;0.00;99.90
47521;DHT22;32291;52.010;4.446;2023-02-15T05:21:20;0.00;99.90
47521;DHT22;32291;52.010;4.446;2023-02-15T05:22:22;0.00;99.90
47521;DHT22;32291;52.010;4.446;2023-02-15T05:23:23;-0.10;99.90
47521;DHT22;32291;52.010;4.446;2023-02-15T05:24:25;0.20;99.90
47521;DHT22;32291;52.010;4.446;2023-02-15T05:25:49;0.20;99.90
47521;DHT22;32291;52.010;4.446;2023-02-15T05:27:11;-0.10;99.90
47521;DHT22;32291;52.010;4.446;2023-02-15T05:28:31;-0.20;99.90
47521;DHT22;32291;52.010;4.446;2023-02-15T05:29:32;-0.20;99.90
47521;DHT22;32291;52.010;4.446;2023-02-15T05:30:34;-0.20;99.90
47521;DHT22;32291;52.010;4.446;2023-02-15T05:31:35;-0.20;99.90
47521;DHT22;32291;52.010;4.446;2023-02-15T05:32:40;-0.20;99.90
47521;DHT22;32291;52.010;4.446;2023-02-15T05:33:41;-0.20;99.90
47521;DHT22;32291;52.010;4.446;2023-02-15T05:34:43;-0.30;99.90
47521;DHT22;32291;52.010;4.446;2023-02-15T05:35:44;-0.30;99.90
47521;DHT22;32291;52.010;4.446;2023-02-15T05:36:46;-0.20;99.90
47521;DHT22;32291;52.010;4.446;2023-02-15T05:37:47;-0.30;99.90
47521;DHT22;32291;52.010;4.446;2023-02-15T05:38:49;-0.20;99.90
47521;DHT22;32291;52.010;4.446;2023-02-15T05:39:51;-0.30;99.90
47521;DHT22;32291;52.010;4.446;2023-02-15T05:40:53;-0.30;99.90
47521;DHT22;32291;52.010;4.446;2023-02-15T05:41:58;-0.30;99.90
47521;DHT22;32291;52.010;4.446;2023-02-15T05:43:01;-0.30;99.90
47521;DHT22;32291;52.010;4.446;2023-02-15T05:44:05;-0.30;99.90
47521;DHT22;32291;52.010;4.446;2023-02-15T05:45:07;-0.30;99.90
47521;DHT22;32291;52.010;4.446;2023-02-15T05:46:08;-0.30;99.90
47521;DHT22;32291;52.010;4.446;2023-02-15T05:47:09;-0.40;99.90
47521;DHT22;32291;52.010;4.446;2023-02-15T05:48:11;-0.40;99.90
47521;DHT22;32291;52.010;4.446;2023-02-15T05:49:12;-0.40;99.90
47521;DHT22;32291;52.010;4.446;2023-02-15T05:50:14;-0.40;99.90
47521;DHT22;32291;52.010;4.446;2023-02-15T05:51:16;-0.40;99.90
47521;DHT22;32291;52.010;4.446;2023-02-15T05:52:18;-0.30;99.90
47521;DHT22;32291;52.010;4.446;2023-02-15T05:53:19;-0.40;99.90
47521;DHT22;32291;52.010;4.446;2023-02-15T05:54:21;-0.40;99.90
47521;DHT22;32291;52.010;4.446;2023-02-15T05:55:22;-0.30;99.90
47521;DHT22;32291;52.010;4.446;2023-02-15T05:56:24;-0.40;99.90
47521;DHT22;32291;52.010;4.446;2023-02-15T05:57:25;-0.40;99.90
47521;DHT22;32291;52.010;4.446;2023-02-15T05:58:28;-0.30;99.90
47521;DHT22;32291;52.010;4.446;2023-02-15T05:59:30;-0.30;99.90
47521;DHT22;32291;52.010;4.446;2023-02-15T06:00:32;-0.30;99.90
47521;DHT22;32291;52.010;4.446;2023-02-15T06:01:33;0.20;99.90
47521;DHT22;32291;52.010;4.446;2023-02-15T06:02:35;-0.20;99.90
47521;DHT22;32291;52.010;4.446;2023-02-15T06:03:36;-0.20;99.90
47521;DHT22;32291;52.010;4.446;2023-02-15T06:04:38;-0.20;99.90
47521;DHT22;32291;52.010;4.446;2023-02-15T06:05:40;-0.20;99.90
47521;DHT22;32291;52.010;4.446;2023-02-15T06:06:41;-0.10;99.90
47521;DHT22;32291;52.010;4.446;2023-02-15T06:07:43;-0.10;99.90
47521;DHT22;32291;52.010;4.446;2023-02-15T06:08:45;-0.10;99.90
47521;DHT22;32291;52.010;4.446;2023-02-15T06:09:46;0.00;99.90
47521;DHT22;32291;52.010;4.446;2023-02-15T06:10:48;-0.10;99.90
47521;DHT22;32291;52.010;4.446;2023-02-15T06:11:50;-0.10;99.90
47521;DHT22;32291;52.010;4.446;2023-02-15T06:12:51;-0.10;99.90
47521;DHT22;32291;52.010;4.446;2023-02-15T06:13:53;-0.10;99.90
47521;DHT22;32291;52.010;4.446;2023-02-15T06:14:55;-0.10;99.90
47521;DHT22;32291;52.010;4.446;2023-02-15T06:15:56;-0.10;99.90
47521;DHT22;32291;52.010;4.446;2023-02-15T06:16:58;-0.20;99.90
47521;DHT22;32291;52.010;4.446;2023-02-15T06:17:59;-0.20;99.90
47521;DHT22;32291;52.010;4.446;2023-02-15T06:19:02;-0.20;99.90
47521;DHT22;32291;52.010;4.446;2023-02-15T06:20:05;-0.10;99.90
47521;DHT22;32291;52.010;4.446;2023-02-15T06:21:06;-0.20;99.90
47521;DHT22;32291;52.010;4.446;2023-02-15T06:22:08;-0.20;99.90
47521;DHT22;32291;52.010;4.446;2023-02-15T06:23:10;-0.10;99.90
47521;DHT22;32291;52.010;4.446;2023-02-15T06:24:11;-0.10;99.90
47521;DHT22;32291;52.010;4.446;2023-02-15T06:25:13;-0.20;99.90
47521;DHT22;32291;52.010;4.446;2023-02-15T06:26:14;-0.20;99.90
47521;DHT22;32291;52.010;4.446;2023-02-15T06:27:16;-0.20;99.90
47521;DHT22;32291;52.010;4.446;2023-02-15T06:28:17;-0.20;99.90
47521;DHT22;32291;52.010;4.446;2023-02-15T06:29:18;-0.20;99.90
47521;DHT22;32291;52.010;4.446;2023-02-15T06:30:20;-0.10;99.90
47521;DHT22;32291;52.010;4.446;2023-02-15T06:31:21;-0.10;99.90
47521;DHT22;32291;52.010;4.446;2023-02-15T06:32:26;-0.10;99.90
47521;DHT22;32291;52.010;4.446;2023-02-15T06:33:27;-0.10;99.90
47521;DHT22;32291;52.010;4.446;2023-02-15T06:34:28;-0.10;99.90
47521;DHT22;32291;52.010;4.446;2023-02-15T06:35:30;-0.10;99.90
47521;DHT22;32291;52.010;4.446;2023-02-15T06:36:31;-0.10;99.90
47521;DHT22;32291;52.010;4.446;2023-02-15T06:37:33;-0.10;99.90
47521;DHT22;32291;52.010;4.446;2023-02-15T06:38:34;-0.10;99.90
47521;DHT22;32291;52.010;4.446;2023-02-15T06:39:36;-0.10;99.90
47521;DHT22;32291;52.010;4.446;2023-02-15T06:40:38;0.00;99.90
47521;DHT22;32291;52.010;4.446;2023-02-15T06:41:39;-0.10;99.90
47521;DHT22;32291;52.010;4.446;2023-02-15T06:42:41;-0.10;99.90
47521;DHT22;32291;52.010;4.446;2023-02-15T06:43:43;-0.20;99.90
47521;DHT22;32291;52.010;4.446;2023-02-15T06:44:45;-0.10;99.90
47521;DHT22;32291;52.010;4.446;2023-02-15T06:45:46;-0.20;99.90
47521;DHT22;32291;52.010;4.446;2023-02-15T06:46:47;-0.20;99.90
47521;DHT22;32291;52.010;4.446;2023-02-15T06:47:49;-0.20;99.90
47521;DHT22;32291;52.010;4.446;2023-02-15T06:48:50;-0.20;99.90
47521;DHT22;32291;52.010;4.446;2023-02-15T06:49:51;-0.30;99.90
47521;DHT22;32291;52.010;4.446;2023-02-15T06:50:53;-0.30;99.90
47521;DHT22;32291;52.010;4.446;2023-02-15T06:51:54;-0.30;99.90
47521;DHT22;32291;52.010;4.446;2023-02-15T06:52:57;-0.30;99.90
47521;DHT22;32291;52.010;4.446;2023-02-15T06:53:58;-0.30;99.90
47521;DHT22;32291;52.010;4.446;2023-02-15T06:55:00;-0.20;99.90
47521;DHT22;32291;52.010;4.446;2023-02-15T06:56:06;-0.20;99.90
47521;DHT22;32291;52.010;4.446;2023-02-15T06:57:10;-0.20;99.90
47521;DHT22;32291;52.010;4.446;2023-02-15T06:58:12;-0.20;99.90
47521;DHT22;32291;52.010;4.446;2023-02-15T06:59:13;-0.20;99.90
47521;DHT22;32291;52.010;4.446;2023-02-15T07:00:14;-0.20;99.90
47521;DHT22;32291;52.010;4.446;2023-02-15T07:01:16;-0.30;99.90
47521;DHT22;32291;52.010;4.446;2023-02-15T07:02:20;-0.30;99.90
47521;DHT22;32291;52.010;4.446;2023-02-15T07:03:21;-0.30;99.90
47521;DHT22;32291;52.010;4.446;2023-02-15T07:04:23;-0.30;99.90
47521;DHT22;32291;52.010;4.446;2023-02-15T07:05:25;-0.30;99.90
47521;DHT22;32291;52.010;4.446;2023-02-15T07:06:35;-0.30;99.90
47521;DHT22;32291;52.010;4.446;2023-02-15T07:07:37;-0.30;99.90
47521;DHT22;32291;52.010;4.446;2023-02-15T07:08:39;-0.30;99.90
47521;DHT22;32291;52.010;4.446;2023-02-15T07:09:40;-0.30;99.90
47521;DHT22;32291;52.010;4.446;2023-02-15T07:10:45;-0.30;99.90
47521;DHT22;32291;52.010;4.446;2023-02-15T07:11:46;-0.30;99.90
47521;DHT22;32291;52.010;4.446;2023-02-15T07:13:06;-0.30;99.90
47521;DHT22;32291;52.010;4.446;2023-02-15T07:14:08;-0.30;99.90
47521;DHT22;32291;52.010;4.446;2023-02-15T07:15:17;-0.20;99.90